createdAt,value
2018-12-09T00:01:54.697Z,8.21
2018-12-09T00:04:23.994Z,8.03
2018-12-09T00:06:53.407Z,7.97
2018-12-09T00:09:23.029Z,7.97
2018-12-09T00:11:52.289Z,7.74
2018-12-09T00:14:21.583Z,7.59
2018-12-09T00:16:50.673Z,7.61
2018-12-09T00:19:20.255Z,7.61
2018-12-09T00:21:49.483Z,7.62
2018-12-09T00:24:18.827Z,7.64
2018-12-09T00:26:47.926Z,7.62
2018-12-09T00:29:17.376Z,7.67
2018-12-09T00:31:46.596Z,7.70
2018-12-09T00:34:16.264Z,7.44
2018-12-09T00:36:45.914Z,7.68
2018-12-09T00:39:15.496Z,7.65
2018-12-09T00:41:44.792Z,7.75
2018-12-09T00:44:14.079Z,7.86
2018-12-09T00:46:43.520Z,7.91
2018-12-09T00:49:13.247Z,7.24
2018-12-09T00:51:42.547Z,7.91
2018-12-09T00:54:11.810Z,7.94
2018-12-09T00:56:41.130Z,7.92
2018-12-09T00:59:10.333Z,7.92
2018-12-09T01:01:39.613Z,7.88
2018-12-09T01:04:08.733Z,7.84
2018-12-09T01:06:38.157Z,7.93
2018-12-09T01:09:07.395Z,7.95
2018-12-09T01:11:36.620Z,7.90
2018-12-09T01:14:06.213Z,7.82
2018-12-09T01:16:35.468Z,7.79
2018-12-09T01:19:04.645Z,7.84
2018-12-09T01:21:33.832Z,7.84
2018-12-09T01:24:03.463Z,7.95
2018-12-09T01:26:32.552Z,7.95
2018-12-09T01:29:01.835Z,7.88
2018-12-09T01:31:31.008Z,7.89
2018-12-09T01:34:00.422Z,7.94
2018-12-09T01:36:29.948Z,7.88
2018-12-09T01:38:59.398Z,7.89
2018-12-09T01:41:28.562Z,7.83
2018-12-09T01:43:57.797Z,7.79
2018-12-09T01:46:27.121Z,7.78
2018-12-09T01:48:56.763Z,7.70
2018-12-09T01:51:26.033Z,7.68
2018-12-09T01:54:11.413Z,7.63
2018-12-09T01:56:41.259Z,7.51
2018-12-09T01:59:10.449Z,7.48
2018-12-09T02:01:39.659Z,7.45
2018-12-09T02:04:09.105Z,7.45
2018-12-09T02:06:38.349Z,7.46
2018-12-09T02:09:09.465Z,7.39
2018-12-09T02:11:38.840Z,7.34
2018-12-09T02:14:08.204Z,7.35
2018-12-09T02:16:37.624Z,7.38
2018-12-09T02:19:24.673Z,7.29
2018-12-09T02:21:53.897Z,7.28
2018-12-09T02:24:23.796Z,7.16
2018-12-09T02:26:52.979Z,7.06
2018-12-09T02:29:22.279Z,7.11
2018-12-09T02:31:51.484Z,7.09
2018-12-09T02:34:21.101Z,7.11
2018-12-09T02:36:51.213Z,7.18
2018-12-09T02:39:20.506Z,7.03
2018-12-09T02:41:49.839Z,7.03
2018-12-09T02:44:19.181Z,6.97
2018-12-09T02:46:48.273Z,6.86
2018-12-09T02:49:17.530Z,6.86
2018-12-09T02:51:46.813Z,6.85
2018-12-09T02:54:16.301Z,6.78
2018-12-09T02:56:46.317Z,6.74
2018-12-09T02:59:16.383Z,6.70
2018-12-09T03:01:45.777Z,6.74
2018-12-09T03:04:15.064Z,6.62
2018-12-09T03:06:44.586Z,6.50
2018-12-09T03:09:14.296Z,6.53
2018-12-09T03:11:43.726Z,6.62
2018-12-09T03:14:13.117Z,6.69
2018-12-09T03:16:42.572Z,6.77
2018-12-09T03:19:11.793Z,6.74
2018-12-09T03:21:40.929Z,6.74
2018-12-09T03:24:10.159Z,6.72
2018-12-09T03:26:39.475Z,6.62
2018-12-09T03:29:08.738Z,6.61
2018-12-09T03:31:37.863Z,6.74
2018-12-09T03:34:06.998Z,6.74
2018-12-09T03:36:36.250Z,6.76
2018-12-09T03:39:07.278Z,6.71
2018-12-09T03:41:36.589Z,6.63
2018-12-09T03:44:06.162Z,6.56
2018-12-09T03:46:35.497Z,6.61
2018-12-09T03:49:05.197Z,6.63
2018-12-09T03:51:34.383Z,6.62
2018-12-09T03:54:03.605Z,6.60
2018-12-09T03:56:32.718Z,6.68
2018-12-09T03:59:02.198Z,6.64
2018-12-09T04:01:31.537Z,6.67
2018-12-09T04:04:00.713Z,6.76
2018-12-09T04:06:30.022Z,6.73
2018-12-09T04:08:59.178Z,6.68
2018-12-09T04:11:28.854Z,6.72
2018-12-09T04:13:58.246Z,6.83
2018-12-09T04:16:27.791Z,6.78
2018-12-09T04:18:56.853Z,6.73
2018-12-09T04:21:26.120Z,6.66
2018-12-09T04:23:55.459Z,6.69
2018-12-09T04:26:24.551Z,6.84
2018-12-09T04:28:53.590Z,6.86
2018-12-09T04:31:23.096Z,6.87
2018-12-09T04:33:52.547Z,6.88
2018-12-09T04:36:21.949Z,6.89
2018-12-09T04:38:51.318Z,6.82
2018-12-09T04:41:20.822Z,6.84
2018-12-09T04:43:50.123Z,6.86
2018-12-09T04:46:19.481Z,6.85
2018-12-09T04:48:48.620Z,6.85
2018-12-09T04:51:17.956Z,6.94
2018-12-09T04:53:47.329Z,6.92
2018-12-09T04:56:16.491Z,6.87
2018-12-09T04:58:58.601Z,6.85
2018-12-09T05:01:27.791Z,6.78
2018-12-09T05:03:57.416Z,6.75
2018-12-09T05:06:26.609Z,6.83
2018-12-09T05:08:55.849Z,6.85
2018-12-09T05:11:25.122Z,6.85
2018-12-09T05:13:54.755Z,6.87
2018-12-09T05:16:24.051Z,6.84
2018-12-09T05:18:53.685Z,6.86
2018-12-09T05:21:22.988Z,6.86
2018-12-09T05:23:52.542Z,6.84
2018-12-09T05:26:22.118Z,6.84
2018-12-09T05:28:51.291Z,6.78
2018-12-09T05:34:13.478Z,6.81
2018-12-09T05:36:42.897Z,6.86
2018-12-09T05:39:12.327Z,6.80
2018-12-09T05:41:41.631Z,6.84
2018-12-09T05:44:10.957Z,6.84
2018-12-09T05:46:40.025Z,6.78
2018-12-09T05:49:09.122Z,6.77
2018-12-09T05:51:38.400Z,6.79
2018-12-09T05:54:07.652Z,6.80
2018-12-09T05:56:37.348Z,6.78
2018-12-09T05:59:06.521Z,6.85
2018-12-09T06:01:35.648Z,6.86
2018-12-09T06:04:05.707Z,6.90
2018-12-09T06:06:34.992Z,6.93
2018-12-09T06:09:04.758Z,6.96
2018-12-09T06:11:34.123Z,6.96
2018-12-09T06:14:03.683Z,6.88
2018-12-09T06:16:32.839Z,6.83
2018-12-09T06:19:02.374Z,6.01
2018-12-09T06:21:31.711Z,6.80
2018-12-09T06:24:00.988Z,6.75
2018-12-09T06:26:30.283Z,6.77
2018-12-09T06:28:59.263Z,6.73
2018-12-09T06:31:28.351Z,6.73
2018-12-09T06:33:57.552Z,6.71
2018-12-09T06:36:26.855Z,6.74
2018-12-09T06:38:55.908Z,6.72
2018-12-09T06:41:25.269Z,6.76
2018-12-09T06:43:54.558Z,6.86
2018-12-09T06:46:24.327Z,6.98
2018-12-09T06:48:53.597Z,7.03
2018-12-09T06:51:23.057Z,7.06
2018-12-09T06:53:52.867Z,7.13
2018-12-09T06:56:22.038Z,7.06
2018-12-09T06:58:51.442Z,7.00
2018-12-09T07:01:21.009Z,6.98
2018-12-09T07:03:50.250Z,6.90
2018-12-09T07:06:19.630Z,6.83
2018-12-09T07:08:48.766Z,6.89
2018-12-09T07:11:17.885Z,6.89
2018-12-09T07:13:47.443Z,6.87
2018-12-09T07:16:17.051Z,6.87
2018-12-09T07:18:47.014Z,6.91
2018-12-09T07:21:16.470Z,6.92
2018-12-09T07:23:46.035Z,6.92
2018-12-09T07:26:15.847Z,6.84
2018-12-09T07:28:45.680Z,6.79
2018-12-09T07:31:15.034Z,6.78
2018-12-09T07:33:44.447Z,6.76
2018-12-09T07:36:14.040Z,6.72
2018-12-09T07:38:43.479Z,6.74
2018-12-09T07:41:12.940Z,6.75
2018-12-09T07:43:43.042Z,6.71
2018-12-09T07:46:12.520Z,6.65
2018-12-09T07:48:43.062Z,6.72
2018-12-09T07:51:13.289Z,6.75
2018-12-09T07:53:42.955Z,6.80
2018-12-09T07:56:12.445Z,6.79
2018-12-09T07:58:41.726Z,6.67
2018-12-09T08:01:11.015Z,6.76
2018-12-09T08:03:40.136Z,6.71
2018-12-09T08:06:09.503Z,6.56
2018-12-09T08:08:38.824Z,6.73
2018-12-09T08:11:07.797Z,6.67
2018-12-09T08:13:37.110Z,6.61
2018-12-09T08:16:06.024Z,6.59
2018-12-09T08:18:35.286Z,6.66
2018-12-09T08:21:04.712Z,6.64
2018-12-09T08:23:34.050Z,6.73
2018-12-09T08:26:03.306Z,6.58
2018-12-09T08:28:32.587Z,6.53
2018-12-09T08:31:01.757Z,6.52
2018-12-09T08:33:31.197Z,6.45
2018-12-09T08:36:00.503Z,6.53
2018-12-09T08:38:29.745Z,6.47
2018-12-09T08:40:58.949Z,6.50
2018-12-09T08:43:28.264Z,6.46
2018-12-09T08:45:57.387Z,6.58
2018-12-09T08:48:26.654Z,6.48
2018-12-09T08:50:55.615Z,6.57
2018-12-09T08:53:24.723Z,6.49
2018-12-09T08:55:53.724Z,6.38
2018-12-09T08:58:23.419Z,6.53
2018-12-09T09:00:52.829Z,6.44
2018-12-09T09:03:22.115Z,6.52
2018-12-09T09:05:51.534Z,6.56
2018-12-09T09:08:20.845Z,6.63
2018-12-09T09:10:49.817Z,6.62
2018-12-09T09:13:19.153Z,6.50
2018-12-09T09:15:49.317Z,6.47
2018-12-09T09:18:18.408Z,6.53
2018-12-09T09:20:47.961Z,6.55
2018-12-09T09:23:17.196Z,6.55
2018-12-09T09:25:46.268Z,6.65
2018-12-09T09:28:15.335Z,6.60
2018-12-09T09:30:44.535Z,6.56
2018-12-09T09:33:14.019Z,6.43
2018-12-09T09:35:43.451Z,6.47
2018-12-09T09:38:12.830Z,6.60
2018-12-09T09:40:42.358Z,6.66
2018-12-09T09:43:11.603Z,6.65
2018-12-09T09:45:40.942Z,6.60
2018-12-09T09:48:10.210Z,6.53
2018-12-09T09:50:39.614Z,6.56
2018-12-09T09:53:08.718Z,6.64
2018-12-09T09:55:38.071Z,6.65
2018-12-09T09:58:07.390Z,6.74
2018-12-09T10:00:36.702Z,6.79
2018-12-09T10:03:06.108Z,6.76
2018-12-09T10:05:35.503Z,6.75
2018-12-09T10:08:04.892Z,6.74
2018-12-09T10:10:33.884Z,6.60
2018-12-09T10:13:02.908Z,6.48
2018-12-09T10:15:31.978Z,6.40
2018-12-09T10:18:02.645Z,6.42
2018-12-09T10:20:31.989Z,6.33
2018-12-09T10:23:01.129Z,6.37
2018-12-09T10:25:30.366Z,6.37
2018-12-09T10:27:59.757Z,6.42
2018-12-09T10:30:29.106Z,6.28
2018-12-09T10:32:58.183Z,6.23
2018-12-09T10:35:28.360Z,6.18
2018-12-09T10:37:57.572Z,6.05
2018-12-09T10:40:26.868Z,6.02
2018-12-09T10:42:55.704Z,6.02
2018-12-09T10:45:25.031Z,6.01
2018-12-09T10:47:53.994Z,6.16
2018-12-09T10:50:23.297Z,5.97
2018-12-09T10:52:52.656Z,6.00
2018-12-09T10:55:22.130Z,6.11
2018-12-09T10:57:51.465Z,6.12
2018-12-09T11:00:25.703Z,6.04
2018-12-09T11:02:55.101Z,5.99
2018-12-09T11:05:24.522Z,5.85
2018-12-09T11:07:53.976Z,6.04
2018-12-09T11:10:23.380Z,6.19
2018-12-09T11:12:52.837Z,6.10
2018-12-09T11:15:22.292Z,6.08
2018-12-09T11:17:51.626Z,6.20
2018-12-09T11:20:21.241Z,6.15
2018-12-09T11:22:50.596Z,6.15
2018-12-09T11:25:20.114Z,6.10
2018-12-09T11:27:49.492Z,6.10
2018-12-09T11:30:18.995Z,6.04
2018-12-09T11:32:48.157Z,5.98
2018-12-09T11:35:17.711Z,5.99
2018-12-09T11:37:47.160Z,6.05
2018-12-09T11:40:16.528Z,5.88
2018-12-09T11:42:45.920Z,5.91
2018-12-09T11:45:15.346Z,5.90
2018-12-09T11:47:45.087Z,5.95
2018-12-09T11:50:14.856Z,5.83
2018-12-09T11:52:44.096Z,5.80
2018-12-09T11:55:13.341Z,5.91
2018-12-09T11:57:43.077Z,6.04
2018-12-09T12:02:49.839Z,6.07
2018-12-09T12:05:19.037Z,6.08
2018-12-09T12:07:48.305Z,6.23
2018-12-09T12:10:17.645Z,6.29
2018-12-09T12:12:47.351Z,5.99
2018-12-09T12:15:16.602Z,5.85
2018-12-09T12:17:45.932Z,5.86
2018-12-09T12:20:15.565Z,5.85
2018-12-09T12:22:45.838Z,5.93
2018-12-09T12:25:15.287Z,5.91
2018-12-09T12:27:44.920Z,5.90
2018-12-09T12:30:14.772Z,5.85
2018-12-09T12:32:44.235Z,5.83
2018-12-09T12:35:13.726Z,5.85
2018-12-09T12:37:43.362Z,5.77
2018-12-09T12:40:12.861Z,5.80
2018-12-09T12:42:42.373Z,5.77
2018-12-09T12:45:11.846Z,5.63
2018-12-09T12:47:41.076Z,5.66
2018-12-09T12:50:10.609Z,5.61
2018-12-09T12:52:40.004Z,5.62
2018-12-09T12:55:09.309Z,5.47
2018-12-09T12:57:38.634Z,5.16
2018-12-09T13:00:14.588Z,5.18
2018-12-09T13:02:44.021Z,5.19
2018-12-09T13:05:13.505Z,5.06
2018-12-09T13:07:42.934Z,4.96
2018-12-09T13:10:12.287Z,5.00
2018-12-09T13:12:41.672Z,4.95
2018-12-09T13:15:11.023Z,4.98
2018-12-09T13:17:40.526Z,4.98
2018-12-09T13:20:10.425Z,4.80
2018-12-09T13:22:39.791Z,4.75
2018-12-09T13:25:09.580Z,4.92
2018-12-09T13:27:38.954Z,4.90
2018-12-09T13:30:09.105Z,4.74
2018-12-09T13:32:38.469Z,4.82
2018-12-09T13:35:07.793Z,4.88
2018-12-09T13:37:37.022Z,4.88
2018-12-09T13:40:07.179Z,4.64
2018-12-09T13:42:36.726Z,4.62
2018-12-09T13:45:07.118Z,4.68
2018-12-09T13:47:36.429Z,4.57
2018-12-09T13:50:06.497Z,4.60
2018-12-09T13:52:35.867Z,4.68
2018-12-09T13:55:05.242Z,4.76
2018-12-09T13:57:34.467Z,4.71
2018-12-09T14:00:04.283Z,4.77
2018-12-09T14:02:33.540Z,4.57
2018-12-09T14:05:02.956Z,4.43
2018-12-09T14:07:32.296Z,4.53
2018-12-09T14:10:01.834Z,4.41
2018-12-09T14:12:31.162Z,4.26
2018-12-09T14:15:00.567Z,4.36
2018-12-09T14:17:30.289Z,4.43
2018-12-09T14:19:59.592Z,4.49
2018-12-09T14:22:28.850Z,4.55
2018-12-09T14:24:58.333Z,4.38
2018-12-09T14:27:28.010Z,4.30
2018-12-09T14:29:57.402Z,4.29
2018-12-09T14:32:26.740Z,4.32
2018-12-09T14:34:56.201Z,4.31
2018-12-09T14:37:25.537Z,4.28
2018-12-09T14:39:55.046Z,4.20
2018-12-09T14:42:24.403Z,4.27
2018-12-09T14:44:54.054Z,4.32
2018-12-09T14:47:23.631Z,4.47
2018-12-09T14:49:53.320Z,4.39
2018-12-09T14:52:22.338Z,4.44
2018-12-09T14:54:51.642Z,4.45
2018-12-09T14:57:20.907Z,4.45
2018-12-09T14:59:50.323Z,4.44
2018-12-09T15:02:19.646Z,4.35
2018-12-09T15:04:48.964Z,4.37
2018-12-09T15:07:18.661Z,4.36
2018-12-09T15:09:48.547Z,3.16
2018-12-09T15:12:18.172Z,4.36
2018-12-09T15:14:47.948Z,4.25
2018-12-09T15:17:17.271Z,4.25
2018-12-09T15:19:46.923Z,4.18
2018-12-09T15:22:16.545Z,4.23
2018-12-09T15:24:46.167Z,4.15
2018-12-09T15:27:15.941Z,4.19
2018-12-09T15:29:45.859Z,4.18
2018-12-09T15:32:15.403Z,4.21
2018-12-09T15:34:45.154Z,4.16
2018-12-09T15:37:14.389Z,4.05
2018-12-09T15:39:44.184Z,4.05
2018-12-09T15:42:13.864Z,3.93
2018-12-09T15:44:43.494Z,3.98
2018-12-09T15:47:12.876Z,3.99
2018-12-09T15:49:42.276Z,4.05
2018-12-09T15:52:11.654Z,4.06
2018-12-09T15:54:41.055Z,4.10
2018-12-09T15:57:10.418Z,4.06
2018-12-09T15:59:39.717Z,4.11
2018-12-09T16:02:09.199Z,4.02
2018-12-09T16:04:38.586Z,4.01
2018-12-09T16:07:07.821Z,3.93
2018-12-09T16:09:37.326Z,3.93
2018-12-09T16:12:06.708Z,3.94
2018-12-09T16:14:35.999Z,3.86
2018-12-09T16:17:05.859Z,3.72
2018-12-09T16:19:35.194Z,3.63
2018-12-09T16:22:04.883Z,3.64
2018-12-09T16:24:34.283Z,2.86
2018-12-09T16:27:03.583Z,3.67
2018-12-09T16:29:32.916Z,3.75
2018-12-09T16:32:02.292Z,3.61
2018-12-09T16:34:31.465Z,3.70
2018-12-09T16:37:00.838Z,3.75
2018-12-09T16:39:30.105Z,3.69
2018-12-09T16:41:59.658Z,3.68
2018-12-09T16:44:28.928Z,3.75
2018-12-09T16:46:58.210Z,3.72
2018-12-09T16:49:27.544Z,3.78
2018-12-09T16:51:56.736Z,3.77
2018-12-09T16:54:26.044Z,3.81
2018-12-09T16:56:55.284Z,3.84
2018-12-09T16:59:24.542Z,3.76
2018-12-09T17:01:53.863Z,3.77
2018-12-09T17:04:23.250Z,3.82
2018-12-09T17:06:52.631Z,3.82
2018-12-09T17:09:22.516Z,3.81
2018-12-09T17:11:51.917Z,3.86
2018-12-09T17:14:21.591Z,3.87
2018-12-09T17:16:51.013Z,3.89
2018-12-09T17:19:20.329Z,3.92
2018-12-09T17:21:49.682Z,3.92
2018-12-09T17:24:18.957Z,3.92
2018-12-09T17:26:48.258Z,3.92
2018-12-09T17:29:17.578Z,3.90
2018-12-09T17:31:46.972Z,3.91
2018-12-09T17:34:16.290Z,3.91
2018-12-09T17:36:45.687Z,0.33
2018-12-09T17:39:15.419Z,3.96
2018-12-09T17:41:44.890Z,3.93
2018-12-09T17:44:14.490Z,3.91
2018-12-09T17:46:43.950Z,3.92
2018-12-09T17:49:13.321Z,3.91
2018-12-09T17:51:42.791Z,3.90
2018-12-09T17:54:12.128Z,3.87
2018-12-09T17:56:41.452Z,3.89
2018-12-09T17:59:11.055Z,3.90
2018-12-09T18:01:40.666Z,3.88
2018-12-09T18:04:09.649Z,3.72
2018-12-09T18:06:38.673Z,3.62
2018-12-09T18:09:07.796Z,3.62
2018-12-09T18:11:37.188Z,3.49
2018-12-09T18:14:06.301Z,3.36
2018-12-09T18:16:35.316Z,3.29
2018-12-09T18:19:04.440Z,3.24
2018-12-09T18:21:33.733Z,3.25
2018-12-09T18:24:05.350Z,3.21
2018-12-09T18:26:34.838Z,3.21
2018-12-09T18:29:03.858Z,3.18
2018-12-09T18:31:34.309Z,3.16
2018-12-09T18:34:03.611Z,3.12
2018-12-09T18:36:33.645Z,2.80
2018-12-09T18:39:03.500Z,3.04
2018-12-09T18:41:33.225Z,3.01
2018-12-09T18:44:02.972Z,2.99
2018-12-09T18:46:32.033Z,2.99
2018-12-09T18:49:01.667Z,3.01
2018-12-09T18:51:30.869Z,3.00
2018-12-09T18:54:00.655Z,3.04
2018-12-09T18:56:30.184Z,3.03
2018-12-09T18:58:59.398Z,3.03
2018-12-09T19:01:29.014Z,3.01
2018-12-09T19:03:58.835Z,3.05
2018-12-09T19:06:28.534Z,3.09
2018-12-09T19:08:57.660Z,3.16
2018-12-09T19:11:27.021Z,3.07
2018-12-09T19:13:56.276Z,3.07
2018-12-09T19:16:25.987Z,3.00
2018-12-09T19:18:55.067Z,3.07
2018-12-09T19:21:25.351Z,3.08
2018-12-09T19:23:54.812Z,3.16
2018-12-09T19:26:24.171Z,3.16
2018-12-09T19:28:53.272Z,3.21
2018-12-09T19:31:23.767Z,3.20
2018-12-09T19:33:53.350Z,3.34
2018-12-09T19:36:22.825Z,3.44
2018-12-09T19:38:53.198Z,3.62
2018-12-09T19:41:23.709Z,0.15
2018-12-09T19:44:56.787Z,3.86
2018-12-09T19:47:26.085Z,3.98
2018-12-09T19:49:56.167Z,4.16
2018-12-09T19:52:25.449Z,4.24
2018-12-09T19:54:54.622Z,4.33
2018-12-09T19:57:24.169Z,4.47
2018-12-09T19:59:53.416Z,4.53
2018-12-09T20:02:22.977Z,4.64
2018-12-09T20:04:52.246Z,4.75
2018-12-09T20:07:21.326Z,4.85
2018-12-09T20:09:50.557Z,4.96
2018-12-09T20:12:19.973Z,5.04
2018-12-09T20:14:49.847Z,5.09
2018-12-09T20:17:19.841Z,5.16
2018-12-09T20:19:49.890Z,5.23
2018-12-09T20:22:19.281Z,5.27
2018-12-09T20:24:48.981Z,5.34
2018-12-09T20:27:18.743Z,5.39
2018-12-09T20:29:48.144Z,5.41
2018-12-09T20:32:17.439Z,5.41
2018-12-09T20:34:47.200Z,5.36
2018-12-09T20:37:16.561Z,5.34
2018-12-09T20:39:45.899Z,5.34
2018-12-09T20:42:15.428Z,5.33
2018-12-09T20:44:44.984Z,5.34
2018-12-09T20:47:15.361Z,5.33
2018-12-09T20:49:45.009Z,5.33
2018-12-09T20:52:15.181Z,5.34
2018-12-09T20:54:44.277Z,5.36
2018-12-09T20:57:14.892Z,5.37
2018-12-09T20:59:44.252Z,5.36
2018-12-09T21:02:13.607Z,5.42
2018-12-09T21:04:42.856Z,5.41
2018-12-09T21:07:12.280Z,5.39
2018-12-09T21:09:41.738Z,5.37
2018-12-09T21:12:11.165Z,5.39
2018-12-09T21:14:40.339Z,5.41
2018-12-09T21:17:09.389Z,5.38
2018-12-09T21:19:38.489Z,5.46
2018-12-09T21:22:08.231Z,5.51
2018-12-09T21:24:37.220Z,5.52
2018-12-09T21:27:06.482Z,5.53
2018-12-09T21:29:35.526Z,5.57
2018-12-09T21:32:05.041Z,5.56
2018-12-09T21:34:34.184Z,5.59
2018-12-09T21:37:03.571Z,5.58
2018-12-09T21:39:32.522Z,5.59
2018-12-09T21:42:01.598Z,5.58
2018-12-09T21:44:31.012Z,5.61
2018-12-09T21:47:00.170Z,5.60
2018-12-09T21:49:29.436Z,5.63
2018-12-09T21:51:58.560Z,5.65
2018-12-09T21:54:27.676Z,5.64
2018-12-09T21:56:56.751Z,5.67
2018-12-09T21:59:25.929Z,5.60
2018-12-09T22:01:55.102Z,5.61
2018-12-09T22:04:24.166Z,5.59
2018-12-09T22:06:53.280Z,5.59
2018-12-09T22:09:22.572Z,5.58
2018-12-09T22:11:51.544Z,5.55
2018-12-09T22:14:21.756Z,5.56
2018-12-09T22:16:50.715Z,5.51
2018-12-09T22:19:19.675Z,5.52
2018-12-09T22:21:48.967Z,5.55
2018-12-09T22:24:18.310Z,5.51
2018-12-09T22:26:47.940Z,5.53
2018-12-09T22:29:17.413Z,5.55
2018-12-09T22:31:46.887Z,5.52
2018-12-09T22:34:17.905Z,5.49
2018-12-09T22:36:46.921Z,5.47
2018-12-09T22:39:16.389Z,5.50
2018-12-09T22:41:45.685Z,5.50
2018-12-09T22:44:14.597Z,5.46
2018-12-09T22:46:43.996Z,5.50
2018-12-09T22:49:12.974Z,5.47
2018-12-09T22:51:42.641Z,5.49
2018-12-09T22:54:11.884Z,5.51
2018-12-09T22:56:41.294Z,5.46
2018-12-09T22:59:10.544Z,5.43
2018-12-09T23:01:43.916Z,5.44
2018-12-09T23:04:13.235Z,5.44
2018-12-09T23:06:42.402Z,5.46
2018-12-09T23:09:11.842Z,5.48
2018-12-09T23:11:41.088Z,5.52
2018-12-09T23:14:10.889Z,5.55
2018-12-09T23:16:40.173Z,5.52
2018-12-09T23:19:09.443Z,5.51
2018-12-09T23:21:39.115Z,5.55
2018-12-09T23:24:08.158Z,5.64
2018-12-09T23:26:37.411Z,5.62
2018-12-09T23:29:06.379Z,5.65
2018-12-09T23:31:35.282Z,5.66
2018-12-09T23:34:04.480Z,5.64
2018-12-09T23:36:33.917Z,5.63
2018-12-09T23:39:04.414Z,5.61
2018-12-09T23:41:33.833Z,5.65
2018-12-09T23:44:03.302Z,5.70
2018-12-09T23:46:32.498Z,5.75
2018-12-09T23:49:01.599Z,5.76
2018-12-09T23:51:30.919Z,5.72
2018-12-09T23:54:00.400Z,5.69
2018-12-09T23:56:29.611Z,5.69
2018-12-09T23:58:58.818Z,5.68
